Time;durP1;ratioP1;P1;durP2;ratioP2;P2;SDS_P1;SDS_P2;PMS_P1;PMS_P2;Temp;Humidity;BMP_temperature;BMP_pressure;BME280_temperature;BME280_humidity;BME280_pressure;Samples;Min_cycle;Max_cycle;Signal;HPM_P1;HPM_P2
2023/10/07 00:03:05;;;;;;;4.45;2.50;;;;;;;;;;5079578;27;20043;-76
2023/10/07 00:05:35;;;;;;;3.20;2.35;;;;;;;;;;5137825;27;20031;-76
2023/10/07 00:08:03;;;;;;;2.60;2.40;;;;;;;;;;5138232;27;20035;-75
2023/10/07 00:10:30;;;;;;;3.75;2.17;;;;;;;;;;5137371;27;20035;-75
2023/10/07 00:13:00;;;;;;;3.13;2.20;;;;;;;;;;5119608;27;20427;-75
2023/10/07 00:15:29;;;;;;;2.45;2.03;;;;;;;;;;5137582;27;20038;-75
2023/10/07 00:17:59;;;;;;;2.92;2.08;;;;;;;;;;5102075;27;20038;-75
2023/10/07 00:20:26;;;;;;;4.10;2.30;;;;;;;;;;5137789;27;20408;-75
2023/10/07 00:22:54;;;;;;;3.88;2.20;;;;;;;;;;5118892;27;20489;-75
2023/10/07 00:25:22;;;;;;;3.38;2.30;;;;;;;;;;5137647;27;20080;-77
2023/10/07 00:27:48;;;;;;;4.30;2.08;;;;;;;;;;5137747;27;20495;-77
2023/10/07 00:30:15;;;;;;;3.10;2.25;;;;;;;;;;5118747;27;20031;-75
2023/10/07 00:32:45;;;;;;;3.88;2.25;;;;;;;;;;5137328;27;20036;-76
2023/10/07 00:35:11;;;;;;;3.38;2.42;;;;;;;;;;5119354;27;20066;-76
2023/10/07 00:37:44;;;;;;;3.05;1.90;;;;;;;;;;5119417;27;20540;-75
2023/10/07 00:42:54;;;;;;;3.78;2.20;;;;;;;;;;5137286;27;20496;-75
2023/10/07 00:45:24;;;;;;;2.72;1.83;;;;;;;;;;5136939;27;20027;-77
2023/10/07 00:47:52;;;;;;;5.65;1.92;;;;;;;;;;5137529;27;20456;-76
2023/10/07 00:50:17;;;;;;;4.20;2.10;;;;;;;;;;5136833;27;20472;-81
2023/10/07 00:55:25;;;;;;;3.40;1.90;;;;;;;;;;5118392;27;20043;-76
2023/10/07 00:58:35;;;;;;;3.42;1.92;;;;;;;;;;5137270;27;20487;-76
2023/10/07 01:05:54;;;;;;;2.70;2.10;;;;;;;;;;5118147;27;20028;-75
2023/10/07 01:08:34;;;;;;;3.40;2.10;;;;;;;;;;5117890;27;20039;-76
2023/10/07 01:13:48;;;;;;;4.15;2.03;;;;;;;;;;5136019;27;20088;-75
2023/10/07 01:16:25;;;;;;;4.50;2.40;;;;;;;;;;5136536;27;20031;-75
2023/10/07 01:18:51;;;;;;;6.43;2.33;;;;;;;;;;5136583;27;20027;-75
2023/10/07 01:21:31;;;;;;;6.30;2.28;;;;;;;;;;5136393;27;20030;-75
2023/10/07 01:23:57;;;;;;;4.38;2.13;;;;;;;;;;5136688;27;20381;-75
2023/10/07 01:26:28;;;;;;;4.65;2.28;;;;;;;;;;5117807;27;20042;-76
2023/10/07 01:29:02;;;;;;;4.50;2.38;;;;;;;;;;5136330;27;20418;-76
2023/10/07 01:31:29;;;;;;;3.58;2.05;;;;;;;;;;5118501;27;20090;-77
2023/10/07 01:34:00;;;;;;;4.05;1.95;;;;;;;;;;5117897;27;20406;-77
2023/10/07 01:36:26;;;;;;;6.90;2.53;;;;;;;;;;5136219;27;20035;-76
2023/10/07 01:38:53;;;;;;;6.53;2.55;;;;;;;;;;5136224;27;20167;-76
2023/10/07 01:41:19;;;;;;;4.82;2.42;;;;;;;;;;5117415;27;20043;-77
2023/10/07 01:44:00;;;;;;;4.00;2.35;;;;;;;;;;5135916;27;20031;-76
2023/10/07 01:46:29;;;;;;;3.80;2.20;;;;;;;;;;5117350;27;20035;-77
2023/10/07 01:48:57;;;;;;;4.88;2.20;;;;;;;;;;5117290;27;20043;-77
2023/10/07 01:51:27;;;;;;;3.63;2.63;;;;;;;;;;5117251;27;20115;-76
2023/10/07 01:53:56;;;;;;;2.92;1.90;;;;;;;;;;5135859;27;20057;-76
2023/10/07 01:59:58;;;;;;;3.55;2.25;;;;;;;;;;5066471;27;20091;-77
2023/10/07 02:02:25;;;;;;;2.40;1.92;;;;;;;;;;5117064;27;20035;-77
2023/10/07 02:04:55;;;;;;;4.50;2.45;;;;;;;;;;5117102;27;20108;-76
2023/10/07 02:07:21;;;;;;;4.38;2.38;;;;;;;;;;5135716;27;20469;-76
2023/10/07 02:09:48;;;;;;;2.70;2.40;;;;;;;;;;5104453;28;20035;-76
2023/10/07 02:12:18;;;;;;;4.25;2.22;;;;;;;;;;5096442;28;20042;-77
2023/10/07 02:14:43;;;;;;;3.58;2.63;;;;;;;;;;5115267;28;20177;-76
2023/10/07 02:17:09;;;;;;;3.83;2.50;;;;;;;;;;5114642;28;20063;-76
2023/10/07 02:19:34;;;;;;;4.45;2.40;;;;;;;;;;5115207;28;20048;-76
2023/10/07 02:22:07;;;;;;;5.90;2.13;;;;;;;;;;5114834;28;20059;-76
2023/10/07 02:24:34;;;;;;;4.88;2.30;;;;;;;;;;5114109;28;20042;-76
2023/10/07 02:27:04;;;;;;;5.93;2.50;;;;;;;;;;5095920;28;20039;-76
2023/10/07 02:29:29;;;;;;;5.72;2.55;;;;;;;;;;5114616;28;20043;-75
2023/10/07 02:32:07;;;;;;;5.90;2.58;;;;;;;;;;5114605;28;20028;-76
2023/10/07 02:34:34;;;;;;;5.18;2.67;;;;;;;;;;5096142;28;20028;-76
2023/10/07 02:37:12;;;;;;;4.85;2.47;;;;;;;;;;5096228;28;20027;-75
2023/10/07 02:39:47;;;;;;;4.60;2.60;;;;;;;;;;5096058;28;20065;-75
2023/10/07 02:42:22;;;;;;;3.65;2.50;;;;;;;;;;5114277;28;20477;-76
2023/10/07 02:45:19;;;;;;;4.18;2.58;;;;;;;;;;5114678;28;20036;-79
2023/10/07 02:47:50;;;;;;;4.55;2.40;;;;;;;;;;5095959;28;20047;-77
2023/10/07 02:50:16;;;;;;;4.18;2.35;;;;;;;;;;5096298;28;20039;-76
2023/10/07 02:52:46;;;;;;;3.65;2.38;;;;;;;;;;5096042;28;20044;-75
2023/10/07 02:57:45;;;;;;;5.45;2.22;;;;;;;;;;5096539;28;20063;-73
2023/10/07 03:05:45;;;;;;;3.42;2.47;;;;;;;;;;5114026;28;20070;-72
2023/10/07 03:08:19;;;;;;;5.30;2.67;;;;;;;;;;5095675;28;20040;-74
2023/10/07 03:13:37;;;;;;;4.13;2.20;;;;;;;;;;5095736;28;20497;-75
2023/10/07 03:16:26;;;;;;;4.60;2.70;;;;;;;;;;5113926;28;20035;-76
2023/10/07 03:24:08;;;;;;;7.20;2.97;;;;;;;;;;5095016;28;20051;-74
2023/10/07 03:26:34;;;;;;;3.78;2.58;;;;;;;;;;5095392;28;20494;-73
2023/10/07 03:29:04;;;;;;;4.82;2.10;;;;;;;;;;5114082;28;20173;-65
2023/10/07 03:34:03;;;;;;;2.90;2.40;;;;;;;;;;5113873;28;20139;-71
2023/10/07 03:36:40;;;;;;;5.88;2.75;;;;;;;;;;5097522;28;20028;-71
2023/10/07 03:41:35;;;;;;;6.10;2.40;;;;;;;;;;5117659;28;20058;-72
2023/10/07 03:44:04;;;;;;;5.55;2.60;;;;;;;;;;5117657;28;20039;-73
2023/10/07 03:46:29;;;;;;;5.05;2.30;;;;;;;;;;5099996;28;20047;-72
2023/10/07 03:48:55;;;;;;;6.13;3.00;;;;;;;;;;5117591;28;20104;-72
2023/10/07 03:51:30;;;;;;;5.18;2.58;;;;;;;;;;5099934;28;20031;-73
2023/10/07 03:54:15;;;;;;;5.65;2.67;;;;;;;;;;5099095;28;20127;-73
2023/10/07 03:56:41;;;;;;;5.07;3.40;;;;;;;;;;5116757;28;20042;-73
2023/10/07 03:59:06;;;;;;;2.53;1.92;;;;;;;;;;5116387;28;20036;-72
2023/10/07 04:01:32;;;;;;;5.43;2.80;;;;;;;;;;5117940;28;20027;-72
2023/10/07 04:04:00;;;;;;;2.22;1.92;;;;;;;;;;5117542;28;20429;-71
2023/10/07 04:06:32;;;;;;;5.85;2.28;;;;;;;;;;5099260;28;20044;-71
2023/10/07 04:09:05;;;;;;;6.85;2.75;;;;;;;;;;5122176;28;20059;-72
2023/10/07 04:11:31;;;;;;;3.63;2.42;;;;;;;;;;5136556;28;20116;-71
2023/10/07 04:13:58;;;;;;;4.78;2.83;;;;;;;;;;5117867;28;20514;-74
2023/10/07 04:16:24;;;;;;;6.55;3.10;;;;;;;;;;5136615;28;20435;-73
2023/10/07 04:18:53;;;;;;;6.03;2.28;;;;;;;;;;5136937;28;20041;-73
2023/10/07 04:21:20;;;;;;;4.68;2.85;;;;;;;;;;5136342;28;20043;-72
2023/10/07 04:23:46;;;;;;;2.97;2.25;;;;;;;;;;5136892;28;20130;-72
2023/10/07 04:26:19;;;;;;;3.60;2.78;;;;;;;;;;5118389;28;20481;-72
2023/10/07 04:28:48;;;;;;;6.70;2.95;;;;;;;;;;5118299;28;20036;-72
2023/10/07 04:31:17;;;;;;;3.75;2.30;;;;;;;;;;5136584;28;20046;-73
2023/10/07 04:33:53;;;;;;;5.45;2.72;;;;;;;;;;5117722;28;20031;-73
2023/10/07 04:36:31;;;;;;;5.97;2.75;;;;;;;;;;5118290;28;20031;-73
2023/10/07 04:38:57;;;;;;;7.10;2.97;;;;;;;;;;5118322;28;20054;-73
2023/10/07 04:43:50;;;;;;;4.57;2.92;;;;;;;;;;5135969;28;20071;-72
2023/10/07 04:46:28;;;;;;;4.28;2.83;;;;;;;;;;5135980;28;20473;-73
2023/10/07 04:48:54;;;;;;;5.15;3.10;;;;;;;;;;5134932;27;20031;-73
2023/10/07 04:51:34;;;;;;;3.58;2.17;;;;;;;;;;5134953;28;20079;-63
2023/10/07 04:54:00;;;;;;;;;;;;;;;;;;5135414;28;20534;-63
2023/10/07 04:56:27;;;;;;;4.57;2.83;;;;;;;;;;5117244;28;19903;-64
2023/10/07 04:58:53;;;;;;;3.63;2.50;;;;;;;;;;5135122;28;20039;-63
2023/10/07 05:01:30;;;;;;;5.13;2.42;;;;;;;;;;5116860;28;20035;-63
2023/10/07 05:03:55;;;;;;;2.97;2.55;;;;;;;;;;5135113;28;20049;-73
2023/10/07 05:06:24;;;;;;;4.55;2.58;;;;;;;;;;5135439;28;20114;-63
2023/10/07 05:08:50;;;;;;;5.97;2.95;;;;;;;;;;5095105;27;1149999;-64
2023/10/07 05:11:18;;;;;;;5.40;2.70;;;;;;;;;;5136937;27;20035;-64
2023/10/07 05:13:46;;;;;;;5.80;3.00;;;;;;;;;;5100158;27;20039;-63
2023/10/07 05:16:14;;;;;;;5.03;2.45;;;;;;;;;;5135272;27;20035;-63
2023/10/07 05:18:40;;;;;;;5.03;2.70;;;;;;;;;;5116753;27;20027;-63
2023/10/07 05:21:06;;;;;;;5.05;3.05;;;;;;;;;;5135090;27;20526;-63
2023/10/07 05:23:33;;;;;;;3.38;2.03;;;;;;;;;;5116674;27;20031;-63
2023/10/07 05:26:03;;;;;;;3.40;1.92;;;;;;;;;;5116379;27;20040;-76
2023/10/07 05:28:33;;;;;;;6.32;2.45;;;;;;;;;;5134932;27;20124;-74
2023/10/07 05:31:00;;;;;;;4.10;2.55;;;;;;;;;;5099796;27;20426;-73
2023/10/07 05:33:27;;;;;;;4.05;2.75;;;;;;;;;;5116621;27;20055;-73
2023/10/07 05:36:11;;;;;;;5.85;2.83;;;;;;;;;;5117286;27;20069;-73
2023/10/07 05:38:37;;;;;;;4.15;2.40;;;;;;;;;;5135802;27;20031;-73
2023/10/07 05:41:06;;;;;;;4.13;2.33;;;;;;;;;;5135966;27;20023;-73
2023/10/07 05:43:31;;;;;;;4.10;2.80;;;;;;;;;;5135703;27;20040;-73
2023/10/07 05:45:59;;;;;;;6.40;2.72;;;;;;;;;;5135055;27;20035;-73
2023/10/07 05:48:24;;;;;;;3.47;2.28;;;;;;;;;;5115908;27;20025;-72
2023/10/07 05:50:50;;;;;;;4.13;2.78;;;;;;;;;;5134263;27;20114;-73
2023/10/07 05:53:15;;;;;;;3.60;2.08;;;;;;;;;;5135182;27;20127;-73
2023/10/07 05:55:41;;;;;;;4.72;2.42;;;;;;;;;;5135514;27;20465;-73
2023/10/07 05:58:07;;;;;;;4.57;2.58;;;;;;;;;;5135480;27;20031;-73
2023/10/07 06:00:33;;;;;;;6.78;2.88;;;;;;;;;;5116627;27;20470;-73
2023/10/07 06:03:02;;;;;;;4.00;2.55;;;;;;;;;;5135008;27;20047;-73
2023/10/07 06:05:29;;;;;;;5.65;3.17;;;;;;;;;;5134995;27;20373;-73
2023/10/07 06:07:57;;;;;;;5.28;2.92;;;;;;;;;;5134518;27;20034;-73
2023/10/07 06:10:24;;;;;;;4.05;2.88;;;;;;;;;;5133743;27;20618;-70
2023/10/07 06:12:50;;;;;;;4.05;2.67;;;;;;;;;;5116588;27;20042;-76
2023/10/07 06:15:16;;;;;;;6.22;2.72;;;;;;;;;;5116841;27;20118;-76
2023/10/07 06:17:47;;;;;;;6.63;2.30;;;;;;;;;;5134951;27;20098;-76
2023/10/07 06:20:15;;;;;;;4.75;2.83;;;;;;;;;;5116637;27;20027;-76
2023/10/07 06:22:45;;;;;;;5.18;2.90;;;;;;;;;;5116892;27;20518;-76
2023/10/07 06:25:12;;;;;;;4.38;2.90;;;;;;;;;;5116774;27;20054;-76
2023/10/07 06:27:38;;;;;;;4.10;2.47;;;;;;;;;;5116311;27;20047;-76
2023/10/07 06:30:04;;;;;;;4.85;2.83;;;;;;;;;;5135173;27;20468;-76
2023/10/07 06:32:43;;;;;;;4.68;2.63;;;;;;;;;;5135263;27;20092;-76
2023/10/07 06:35:13;;;;;;;;;;;;;;;;;;5117085;27;20472;-76
2023/10/07 06:37:41;;;;;;;4.10;2.70;;;;;;;;;;5116727;27;20368;-76
2023/10/07 06:40:23;;;;;;;4.97;3.20;;;;;;;;;;5134797;27;20035;-75
2023/10/07 06:42:49;;;;;;;5.15;3.17;;;;;;;;;;5133483;27;20071;-75
2023/10/07 06:45:17;;;;;;;3.42;2.67;;;;;;;;;;5132722;27;20104;-76
2023/10/07 06:47:43;;;;;;;6.38;3.70;;;;;;;;;;5133644;27;20070;-75
2023/10/07 06:50:17;;;;;;;4.82;2.65;;;;;;;;;;5133547;27;20083;-76
2023/10/07 06:52:49;;;;;;;5.22;3.30;;;;;;;;;;5134376;27;20031;-76
2023/10/07 06:55:21;;;;;;;6.40;2.58;;;;;;;;;;5116262;28;20039;-76
2023/10/07 06:57:48;;;;;;;3.75;2.63;;;;;;;;;;5134215;27;20511;-76
2023/10/07 07:00:24;;;;;;;3.28;2.65;;;;;;;;;;5133368;28;20080;-76
2023/10/07 07:02:54;;;;;;;6.35;3.17;;;;;;;;;;5134684;28;20047;-76
2023/10/07 07:05:22;;;;;;;5.82;3.47;;;;;;;;;;5098977;28;20038;-76
2023/10/07 07:07:52;;;;;;;3.55;2.72;;;;;;;;;;5134199;28;20034;-76
2023/10/07 07:10:27;;;;;;;7.45;3.17;;;;;;;;;;5134467;27;20137;-76
2023/10/07 07:13:34;;;;;;;3.87;2.60;;;;;;;;;;5119942;27;20033;-76
2023/10/07 07:15:57;;;;;;;6.25;2.95;;;;;;;;;;5134223;27;20484;-76
2023/10/07 07:18:25;;;;;;;4.55;2.45;;;;;;;;;;5138752;27;20110;-76
2023/10/07 07:23:25;;;;;;;9.32;3.60;;;;;;;;;;5137896;27;20088;-77
2023/10/07 07:26:12;;;;;;;6.10;2.75;;;;;;;;;;5137568;27;20525;-76
2023/10/07 07:28:43;;;;;;;7.88;3.53;;;;;;;;;;5135675;27;20035;-76
2023/10/07 07:31:18;;;;;;;6.22;3.17;;;;;;;;;;5119062;27;20031;-76
2023/10/07 07:33:48;;;;;;;5.55;2.83;;;;;;;;;;5118796;27;20164;-76
2023/10/07 07:36:47;;;;;;;8.20;3.60;;;;;;;;;;5137628;27;20031;-76
2023/10/07 07:39:17;;;;;;;5.70;2.85;;;;;;;;;;5136629;27;20046;-76
2023/10/07 07:41:55;;;;;;;6.53;3.08;;;;;;;;;;5137156;27;20067;-76
2023/10/07 07:44:33;;;;;;;11.23;4.10;;;;;;;;;;5137143;27;20041;-76
2023/10/07 07:47:05;;;;;;;5.28;2.80;;;;;;;;;;5118746;27;20396;-76
2023/10/07 07:49:32;;;;;;;4.95;2.97;;;;;;;;;;5136867;27;20378;-76
2023/10/07 07:52:01;;;;;;;3.88;2.85;;;;;;;;;;5118494;27;20027;-76
2023/10/07 07:54:26;;;;;;;6.25;3.28;;;;;;;;;;5136801;27;20074;-76
2023/10/07 07:56:54;;;;;;;7.13;3.33;;;;;;;;;;5136742;27;20055;-76
2023/10/07 07:59:20;;;;;;;6.55;2.85;;;;;;;;;;5118404;27;20555;-76
2023/10/07 08:01:51;;;;;;;4.45;3.08;;;;;;;;;;5136732;27;20062;-76
2023/10/07 08:04:18;;;;;;;4.88;3.10;;;;;;;;;;5136768;27;20352;-76
2023/10/07 08:06:45;;;;;;;3.92;2.35;;;;;;;;;;5136724;27;20046;-76
2023/10/07 08:09:11;;;;;;;6.20;2.38;;;;;;;;;;5136125;27;20064;-75
2023/10/07 08:11:36;;;;;;;5.53;2.63;;;;;;;;;;5136114;27;20115;-75
2023/10/07 08:14:09;;;;;;;5.25;2.60;;;;;;;;;;5135313;27;20487;-75
2023/10/07 08:16:46;;;;;;;4.55;2.95;;;;;;;;;;5136526;27;20035;-75
2023/10/07 08:19:12;;;;;;;3.45;2.25;;;;;;;;;;5136202;27;20039;-75
2023/10/07 08:21:39;;;;;;;4.88;2.63;;;;;;;;;;5137555;27;20043;-75
2023/10/07 08:24:06;;;;;;;3.08;2.20;;;;;;;;;;5136135;27;20169;-75
2023/10/07 08:26:34;;;;;;;5.88;3.10;;;;;;;;;;5137079;27;20058;-76
2023/10/07 08:29:00;;;;;;;6.97;2.70;;;;;;;;;;5136101;27;20047;-76
2023/10/07 08:31:38;;;;;;;5.70;2.63;;;;;;;;;;5136845;27;20084;-76
2023/10/07 08:36:36;;;;;;;4.85;2.75;;;;;;;;;;5136738;27;20041;-76
2023/10/07 08:39:05;;;;;;;1.98;1.48;;;;;;;;;;5118740;27;20051;-76
2023/10/07 08:41:31;;;;;;;5.60;3.33;;;;;;;;;;5118807;27;20106;-76
2023/10/07 08:44:29;;;;;;;6.68;3.20;;;;;;;;;;5137106;27;20533;-76
2023/10/07 08:47:03;;;;;;;2.83;2.20;;;;;;;;;;5137105;27;20043;-76
2023/10/07 08:49:35;;;;;;;4.25;2.58;;;;;;;;;;5136737;27;20136;-76
2023/10/07 08:52:08;;;;;;;6.65;3.65;;;;;;;;;;5118604;27;20538;-76
2023/10/07 08:54:37;;;;;;;4.22;2.65;;;;;;;;;;5136849;27;20074;-76
2023/10/07 08:57:10;;;;;;;6.68;2.80;;;;;;;;;;5136677;27;20081;-76
2023/10/07 08:59:37;;;;;;;2.15;1.55;;;;;;;;;;5136780;27;20538;-76
2023/10/07 09:02:12;;;;;;;7.15;3.33;;;;;;;;;;5136504;27;20473;-76
2023/10/07 09:04:40;;;;;;;4.75;3.03;;;;;;;;;;5136592;27;20051;-71
2023/10/07 09:07:08;;;;;;;5.88;3.10;;;;;;;;;;5136099;27;20499;-76
2023/10/07 09:09:43;;;;;;;6.20;3.30;;;;;;;;;;5135604;27;20043;-76
2023/10/07 09:12:15;;;;;;;5.32;3.22;;;;;;;;;;5136513;27;20028;-76
2023/10/07 09:14:57;;;;;;;4.88;2.95;;;;;;;;;;5136410;27;20039;-75
2023/10/07 09:17:29;;;;;;;7.18;2.97;;;;;;;;;;5136428;27;20060;-76
2023/10/07 09:20:00;;;;;;;5.22;3.22;;;;;;;;;;5100906;27;20088;-75
2023/10/07 09:22:34;;;;;;;4.10;2.72;;;;;;;;;;5136392;27;20546;-76
2023/10/07 09:27:44;;;;;;;7.63;3.53;;;;;;;;;;5136196;27;20050;-76
2023/10/07 09:32:55;;;;;;;4.80;2.25;;;;;;;;;;5135947;27;20035;-76
2023/10/07 09:35:23;;;;;;;8.32;4.00;;;;;;;;;;5117297;27;20062;-76
2023/10/07 09:37:53;;;;;;;4.68;2.78;;;;;;;;;;5136006;27;20411;-76
2023/10/07 09:41:07;;;;;;;5.05;3.13;;;;;;;;;;5117436;27;20049;-76
2023/10/07 09:43:07;;;;;;;6.70;3.40;;;;;;;;;;5135648;27;20131;-76
2023/10/07 09:45:34;;;;;;;5.60;3.08;;;;;;;;;;5135266;27;20130;-76
2023/10/07 09:48:01;;;;;;;4.22;3.03;;;;;;;;;;5135429;27;20038;-76
2023/10/07 09:50:37;;;;;;;4.40;2.90;;;;;;;;;;5135553;27;20083;-75
2023/10/07 09:53:17;;;;;;;4.80;3.20;;;;;;;;;;5116967;27;20033;-75
2023/10/07 09:55:47;;;;;;;6.95;3.45;;;;;;;;;;5135334;27;20036;-75
2023/10/07 09:58:24;;;;;;;8.73;3.63;;;;;;;;;;5117316;27;20425;-75
2023/10/07 10:01:05;;;;;;;5.70;3.47;;;;;;;;;;5134737;27;20058;-70
2023/10/07 10:03:42;;;;;;;5.80;3.40;;;;;;;;;;5134709;27;20035;-70
2023/10/07 10:06:16;;;;;;;4.60;2.72;;;;;;;;;;5134905;27;20043;-72
2023/10/07 10:08:44;;;;;;;7.25;3.08;;;;;;;;;;5134270;27;20047;-72
2023/10/07 10:11:31;;;;;;;7.18;2.90;;;;;;;;;;5135280;27;20549;-72
2023/10/07 10:14:16;;;;;;;6.45;2.75;;;;;;;;;;5116963;27;20076;-72
2023/10/07 10:16:51;;;;;;;5.72;3.25;;;;;;;;;;5135684;27;20040;-73
2023/10/07 10:20:00;;;;;;;7.72;2.88;;;;;;;;;;5135298;27;20434;-73
2023/10/07 10:22:24;;;;;;;5.00;2.70;;;;;;;;;;5134005;27;20051;-73
2023/10/07 10:24:54;;;;;;;4.72;2.65;;;;;;;;;;5135160;27;20489;-73
2023/10/07 10:27:20;;;;;;;5.93;2.90;;;;;;;;;;5117590;27;20500;-73
2023/10/07 10:30:04;;;;;;;5.68;3.53;;;;;;;;;;5134811;27;20027;-73
2023/10/07 10:32:34;;;;;;;3.08;2.33;;;;;;;;;;5116881;27;20465;-73
2023/10/07 10:35:03;;;;;;;6.97;3.20;;;;;;;;;;5135090;27;20129;-73
2023/10/07 10:37:30;;;;;;;6.22;3.55;;;;;;;;;;5134983;27;20023;-73
2023/10/07 10:40:14;;;;;;;5.18;1.95;;;;;;;;;;5117319;27;20062;-74
2023/10/07 10:42:42;;;;;;;3.47;2.25;;;;;;;;;;5116709;27;20047;-72
2023/10/07 10:45:30;;;;;;;5.00;1.67;;;;;;;;;;5135074;27;20031;-80
2023/10/07 10:47:58;;;;;;;3.05;1.50;;;;;;;;;;5134527;27;20039;-81
2023/10/07 10:50:24;;;;;;;6.57;3.08;;;;;;;;;;5099278;27;20037;-80
2023/10/07 10:52:56;;;;;;;5.07;3.13;;;;;;;;;;5134988;27;20028;-79
2023/10/07 10:55:25;;;;;;;4.18;2.88;;;;;;;;;;5134998;27;20039;-76
2023/10/07 10:57:53;;;;;;;2.92;1.98;;;;;;;;;;5133882;27;20115;-80
2023/10/07 11:00:22;;;;;;;1.88;0.77;;;;;;;;;;5134600;28;20507;-79
2023/10/07 11:02:52;;;;;;;5.53;3.33;;;;;;;;;;5134774;28;20035;-80
2023/10/07 11:05:18;;;;;;;4.30;2.83;;;;;;;;;;5116332;28;20035;-77
2023/10/07 11:07:46;;;;;;;5.38;2.72;;;;;;;;;;5134671;28;20046;-77
2023/10/07 11:10:12;;;;;;;5.38;2.92;;;;;;;;;;5100389;28;20035;-75
2023/10/07 11:12:40;;;;;;;5.95;2.42;;;;;;;;;;5114247;28;20118;-75
2023/10/07 11:15:12;;;;;;;3.95;2.03;;;;;;;;;;5114305;28;20050;-78
2023/10/07 11:17:56;;;;;;;4.95;2.20;;;;;;;;;;5096204;28;20473;-77
2023/10/07 11:20:30;;;;;;;5.40;2.42;;;;;;;;;;5114190;28;20081;-77
2023/10/07 11:22:56;;;;;;;2.88;2.03;;;;;;;;;;5114496;28;20061;-78
2023/10/07 11:25:28;;;;;;;4.80;2.80;;;;;;;;;;5114142;28;20089;-72
2023/10/07 11:27:54;;;;;;;4.88;2.58;;;;;;;;;;5096101;28;20083;-72
2023/10/07 11:30:21;;;;;;;3.88;2.45;;;;;;;;;;5114193;28;20038;-72
2023/10/07 11:32:47;;;;;;;4.30;2.90;;;;;;;;;;5114109;28;20044;-72
2023/10/07 11:35:20;;;;;;;2.63;2.10;;;;;;;;;;5113462;28;20032;-72
2023/10/07 11:37:49;;;;;;;5.63;2.63;;;;;;;;;;5095874;28;20054;-73
2023/10/07 11:40:17;;;;;;;4.88;3.13;;;;;;;;;;5113776;28;20421;-73
2023/10/07 11:42:42;;;;;;;4.50;2.83;;;;;;;;;;5114095;28;20035;-73
2023/10/07 11:45:09;;;;;;;5.10;2.72;;;;;;;;;;5113951;28;20038;-74
2023/10/07 11:47:36;;;;;;;5.15;2.72;;;;;;;;;;5113903;28;20040;-74
2023/10/07 11:50:02;;;;;;;3.72;2.65;;;;;;;;;;5113744;28;20385;-73
2023/10/07 11:52:29;;;;;;;6.50;3.78;;;;;;;;;;5095480;28;20062;-73
2023/10/07 11:54:54;;;;;;;3.00;1.70;;;;;;;;;;5095836;28;20039;-73
2023/10/07 11:57:20;;;;;;;6.57;3.03;;;;;;;;;;5114103;28;20035;-73
2023/10/07 11:59:45;;;;;;;2.47;1.20;;;;;;;;;;5117581;28;20023;-71
2023/10/07 12:02:11;;;;;;;5.45;2.92;;;;;;;;;;5117376;28;20039;-71
2023/10/07 12:04:38;;;;;;;3.72;2.65;;;;;;;;;;5117289;28;20370;-71
2023/10/07 12:07:06;;;;;;;3.65;2.60;;;;;;;;;;5117251;28;20161;-67
2023/10/07 12:09:31;;;;;;;6.63;2.97;;;;;;;;;;5125934;27;20043;-72
2023/10/07 12:11:58;;;;;;;5.30;2.95;;;;;;;;;;5137271;27;20354;-73
2023/10/07 12:14:27;;;;;;;6.40;3.33;;;;;;;;;;5119475;27;20062;-73
2023/10/07 12:16:52;;;;;;;6.45;3.20;;;;;;;;;;5137337;27;20113;-73
2023/10/07 12:19:18;;;;;;;6.25;2.47;;;;;;;;;;5137295;27;20129;-75
2023/10/07 12:21:50;;;;;;;4.70;3.00;;;;;;;;;;5137976;27;20039;-71
2023/10/07 12:24:16;;;;;;;5.18;3.00;;;;;;;;;;5138005;27;20148;-72
2023/10/07 12:26:45;;;;;;;4.60;2.97;;;;;;;;;;5137595;27;20047;-72
2023/10/07 12:29:10;;;;;;;5.25;3.17;;;;;;;;;;5119513;27;20043;-73
2023/10/07 12:31:43;;;;;;;4.72;3.03;;;;;;;;;;5119473;27;20036;-81
2023/10/07 12:34:10;;;;;;;3.20;2.38;;;;;;;;;;5137926;27;20038;-76
2023/10/07 12:36:38;;;;;;;5.53;3.55;;;;;;;;;;5137754;27;20084;-77
2023/10/07 12:39:10;;;;;;;4.40;2.95;;;;;;;;;;5137592;27;20057;-74
2023/10/07 12:41:44;;;;;;;3.53;2.25;;;;;;;;;;5137187;27;20050;-81
2023/10/07 12:44:10;;;;;;;4.38;3.38;;;;;;;;;;5137319;27;20171;-77
2023/10/07 12:46:39;;;;;;;6.03;3.22;;;;;;;;;;5136599;27;20656;-64
2023/10/07 12:49:14;;;;;;;2.60;2.30;;;;;;;;;;5136626;27;20036;-70
2023/10/07 12:51:42;;;;;;;5.03;3.10;;;;;;;;;;5137546;27;20161;-70
2023/10/07 12:54:11;;;;;;;3.88;3.13;;;;;;;;;;5118689;27;20105;-70
2023/10/07 12:56:38;;;;;;;7.38;3.00;;;;;;;;;;5118510;27;20091;-69
2023/10/07 12:59:18;;;;;;;5.45;2.88;;;;;;;;;;5137126;27;20116;-68
2023/10/07 13:01:59;;;;;;;4.28;3.10;;;;;;;;;;5137197;27;20042;-68
2023/10/07 13:04:34;;;;;;;6.90;3.70;;;;;;;;;;5136475;27;20471;-68
2023/10/07 13:07:13;;;;;;;6.43;2.97;;;;;;;;;;5118371;27;20065;-68
2023/10/07 13:09:43;;;;;;;6.65;3.60;;;;;;;;;;5136064;27;20047;-67
2023/10/07 13:12:27;;;;;;;10.75;4.00;;;;;;;;;;5134741;27;20421;-68
2023/10/07 13:14:52;;;;;;;6.55;3.05;;;;;;;;;;5136509;27;20031;-68
2023/10/07 13:17:19;;;;;;;4.43;2.25;;;;;;;;;;5136743;27;20354;-68
2023/10/07 13:19:48;;;;;;;7.07;3.28;;;;;;;;;;5136934;27;20088;-70
2023/10/07 13:22:13;;;;;;;7.43;3.63;;;;;;;;;;5136377;27;20392;-68
2023/10/07 13:24:38;;;;;;;7.40;3.58;;;;;;;;;;5136746;27;20038;-69
2023/10/07 13:27:04;;;;;;;5.88;3.50;;;;;;;;;;5118193;27;20511;-68
2023/10/07 13:29:34;;;;;;;8.23;3.67;;;;;;;;;;5135923;27;20492;-69
2023/10/07 13:32:00;;;;;;;6.82;3.58;;;;;;;;;;5136341;27;20073;-68
2023/10/07 13:34:28;;;;;;;9.93;4.00;;;;;;;;;;5136331;27;20070;-67
2023/10/07 13:36:53;;;;;;;7.40;3.20;;;;;;;;;;5136421;27;20031;-69
2023/10/07 13:39:19;;;;;;;7.97;3.30;;;;;;;;;;5135970;27;20497;-70
2023/10/07 13:41:44;;;;;;;6.53;3.17;;;;;;;;;;5136395;27;20110;-68
2023/10/07 13:44:15;;;;;;;5.82;2.47;;;;;;;;;;5136397;27;20133;-68
2023/10/07 13:46:41;;;;;;;3.42;2.38;;;;;;;;;;5135338;27;20042;-69
2023/10/07 13:49:13;;;;;;;1.65;1.55;;;;;;;;;;5117133;27;20043;-69
2023/10/07 13:51:43;;;;;;;5.97;2.72;;;;;;;;;;5134572;27;20039;-68
2023/10/07 13:54:22;;;;;;;5.70;2.92;;;;;;;;;;5134850;27;20028;-69
2023/10/07 13:57:02;;;;;;;4.18;2.60;;;;;;;;;;5133877;27;20084;-69
2023/10/07 13:59:27;;;;;;;4.90;2.65;;;;;;;;;;5134952;27;20105;-69
2023/10/07 14:01:55;;;;;;;1.50;1.40;;;;;;;;;;5116530;27;20039;-69
2023/10/07 14:04:21;;;;;;;5.30;3.05;;;;;;;;;;5135056;27;20074;-69
2023/10/07 14:06:47;;;;;;;4.05;3.40;;;;;;;;;;5133737;27;20067;-69
2023/10/07 14:09:23;;;;;;;5.88;3.22;;;;;;;;;;5134960;27;20039;-68
2023/10/07 14:11:48;;;;;;;5.65;3.60;;;;;;;;;;5134972;27;20456;-68
2023/10/07 14:14:14;;;;;;;4.38;3.17;;;;;;;;;;5133542;27;20043;-68
2023/10/07 14:16:40;;;;;;;3.38;1.98;;;;;;;;;;5106836;27;20032;-69
2023/10/07 14:19:06;;;;;;;4.07;3.15;;;;;;;;;;5127975;27;20035;-60
2023/10/07 14:21:32;;;;;;;4.35;2.53;;;;;;;;;;5134977;27;20031;-68
2023/10/07 14:24:03;;;;;;;3.55;2.85;;;;;;;;;;5134932;27;20053;-69
2023/10/07 14:26:32;;;;;;;4.03;3.08;;;;;;;;;;5134628;27;20122;-68
2023/10/07 14:29:01;;;;;;;4.38;2.60;;;;;;;;;;5134921;27;20104;-68
2023/10/07 14:31:27;;;;;;;6.45;3.38;;;;;;;;;;5134868;27;20024;-68
2023/10/07 14:33:54;;;;;;;4.75;3.47;;;;;;;;;;5135003;27;20372;-68
2023/10/07 14:36:21;;;;;;;2.78;1.88;;;;;;;;;;5134313;27;20042;-68
2023/10/07 14:38:48;;;;;;;4.35;3.08;;;;;;;;;;5116365;27;20391;-69
2023/10/07 14:41:14;;;;;;;5.38;3.13;;;;;;;;;;5134163;27;20092;-68
2023/10/07 14:43:41;;;;;;;6.47;3.45;;;;;;;;;;5123438;27;20039;-68
2023/10/07 14:46:10;;;;;;;5.25;3.38;;;;;;;;;;5123095;27;20450;-68
2023/10/07 14:48:37;;;;;;;6.60;3.30;;;;;;;;;;5103421;28;20052;-68
2023/10/07 14:51:04;;;;;;;4.90;3.13;;;;;;;;;;5123022;27;20035;-68
2023/10/07 14:53:33;;;;;;;5.28;3.00;;;;;;;;;;5123414;27;20477;-60
2023/10/07 14:55:59;;;;;;;4.95;2.97;;;;;;;;;;5121953;28;20401;-68
2023/10/07 14:58:29;;;;;;;3.03;2.38;;;;;;;;;;5122927;27;20019;-68
2023/10/07 15:00:55;;;;;;;2.50;2.08;;;;;;;;;;5123555;27;20118;-68
2023/10/07 15:03:21;;;;;;;4.13;2.78;;;;;;;;;;5113421;28;20161;-68
2023/10/07 15:05:48;;;;;;;4.25;2.88;;;;;;;;;;5113462;28;20047;-68
2023/10/07 15:08:16;;;;;;;5.70;3.45;;;;;;;;;;5113351;28;20063;-69
2023/10/07 15:10:46;;;;;;;6.40;2.90;;;;;;;;;;5117081;28;20043;-69
2023/10/07 15:13:12;;;;;;;3.85;2.83;;;;;;;;;;5134495;28;20040;-69
2023/10/07 15:15:40;;;;;;;4.63;3.22;;;;;;;;;;5134346;28;20033;-68
2023/10/07 15:18:06;;;;;;;5.25;3.50;;;;;;;;;;5134178;28;20039;-65
2023/10/07 15:20:40;;;;;;;5.03;2.50;;;;;;;;;;5134923;28;20373;-65
2023/10/07 15:23:08;;;;;;;6.00;3.13;;;;;;;;;;5115004;28;20477;-65
2023/10/07 15:25:39;;;;;;;5.32;3.15;;;;;;;;;;5134744;28;20118;-65
2023/10/07 15:28:05;;;;;;;4.70;3.47;;;;;;;;;;5134992;28;20044;-65
2023/10/07 15:30:35;;;;;;;5.00;3.08;;;;;;;;;;5134364;28;20035;-65
2023/10/07 15:33:00;;;;;;;6.55;3.08;;;;;;;;;;5136374;27;20038;-65
2023/10/07 15:35:27;;;;;;;4.85;3.25;;;;;;;;;;5138466;27;20419;-65
2023/10/07 15:37:52;;;;;;;5.45;3.58;;;;;;;;;;5138364;27;20054;-65
2023/10/07 15:40:18;;;;;;;5.50;4.07;;;;;;;;;;5138500;27;20488;-66
2023/10/07 15:42:45;;;;;;;5.85;3.50;;;;;;;;;;5138025;27;20119;-65
2023/10/07 15:45:14;;;;;;;5.57;3.63;;;;;;;;;;5137956;27;20043;-65
2023/10/07 15:47:40;;;;;;;5.90;3.17;;;;;;;;;;5138033;27;20078;-65
2023/10/07 15:50:07;;;;;;;7.07;3.50;;;;;;;;;;5137707;27;20039;-65
2023/10/07 15:52:33;;;;;;;6.30;3.25;;;;;;;;;;5135157;27;20047;-65